sensor_id;sensor_type;location;lat;lon;timestamp;P1;durP1;ratioP1;P2;durP2;ratioP2
15946;SDS011;8072;52.554;7.966;2022-11-15T00:01:15;19.07;;;11.73;;
15946;SDS011;8072;52.554;7.966;2022-11-15T00:03:42;19.53;;;12.53;;
15946;SDS011;8072;52.554;7.966;2022-11-15T00:06:08;19.13;;;12.23;;
15946;SDS011;8072;52.554;7.966;2022-11-15T00:08:34;20.87;;;12.60;;
15946;SDS011;8072;52.554;7.966;2022-11-15T00:11:01;20.07;;;11.77;;
15946;SDS011;8072;52.554;7.966;2022-11-15T00:13:28;21.43;;;12.63;;
15946;SDS011;8072;52.554;7.966;2022-11-15T00:15:58;21.83;;;13.93;;
15946;SDS011;8072;52.554;7.966;2022-11-15T00:18:26;21.00;;;13.47;;
15946;SDS011;8072;52.554;7.966;2022-11-15T00:20:52;23.43;;;14.00;;
15946;SDS011;8072;52.554;7.966;2022-11-15T00:23:18;23.33;;;13.33;;
15946;SDS011;8072;52.554;7.966;2022-11-15T00:25:44;22.67;;;13.47;;
15946;SDS011;8072;52.554;7.966;2022-11-15T00:28:09;22.73;;;14.00;;
15946;SDS011;8072;52.554;7.966;2022-11-15T00:30:35;22.57;;;14.17;;
15946;SDS011;8072;52.554;7.966;2022-11-15T00:33:02;21.00;;;12.30;;
15946;SDS011;8072;52.554;7.966;2022-11-15T00:35:30;24.63;;;14.33;;
15946;SDS011;8072;52.554;7.966;2022-11-15T00:37:58;22.70;;;13.47;;
15946;SDS011;8072;52.554;7.966;2022-11-15T00:40:24;24.57;;;14.73;;
15946;SDS011;8072;52.554;7.966;2022-11-15T00:42:50;22.87;;;13.67;;
15946;SDS011;8072;52.554;7.966;2022-11-15T00:45:16;23.37;;;14.00;;
15946;SDS011;8072;52.554;7.966;2022-11-15T00:47:44;22.33;;;13.40;;
15946;SDS011;8072;52.554;7.966;2022-11-15T00:50:11;25.80;;;14.37;;
15946;SDS011;8072;52.554;7.966;2022-11-15T00:52:37;22.83;;;13.10;;
15946;SDS011;8072;52.554;7.966;2022-11-15T00:55:03;24.67;;;13.23;;
15946;SDS011;8072;52.554;7.966;2022-11-15T00:57:29;25.60;;;13.90;;
15946;SDS011;8072;52.554;7.966;2022-11-15T00:59:54;20.37;;;13.57;;
15946;SDS011;8072;52.554;7.966;2022-11-15T01:02:20;23.13;;;12.97;;
15946;SDS011;8072;52.554;7.966;2022-11-15T01:04:46;22.10;;;12.83;;
15946;SDS011;8072;52.554;7.966;2022-11-15T01:07:12;21.53;;;13.07;;
15946;SDS011;8072;52.554;7.966;2022-11-15T01:09:38;21.47;;;12.60;;
15946;SDS011;8072;52.554;7.966;2022-11-15T01:12:04;21.80;;;12.73;;
15946;SDS011;8072;52.554;7.966;2022-11-15T01:14:30;21.30;;;13.20;;
15946;SDS011;8072;52.554;7.966;2022-11-15T01:16:55;20.27;;;12.13;;
15946;SDS011;8072;52.554;7.966;2022-11-15T01:19:21;21.27;;;13.50;;
15946;SDS011;8072;52.554;7.966;2022-11-15T01:21:50;23.90;;;13.17;;
15946;SDS011;8072;52.554;7.966;2022-11-15T01:24:17;22.37;;;12.97;;
15946;SDS011;8072;52.554;7.966;2022-11-15T01:26:43;19.17;;;11.97;;
15946;SDS011;8072;52.554;7.966;2022-11-15T01:29:08;22.00;;;13.07;;
15946;SDS011;8072;52.554;7.966;2022-11-15T01:31:35;22.27;;;12.20;;
15946;SDS011;8072;52.554;7.966;2022-11-15T01:34:01;22.07;;;12.47;;
15946;SDS011;8072;52.554;7.966;2022-11-15T01:36:27;21.90;;;12.77;;
15946;SDS011;8072;52.554;7.966;2022-11-15T01:38:53;21.47;;;12.17;;
15946;SDS011;8072;52.554;7.966;2022-11-15T01:41:24;19.33;;;12.30;;
15946;SDS011;8072;52.554;7.966;2022-11-15T01:43:53;21.33;;;12.37;;
15946;SDS011;8072;52.554;7.966;2022-11-15T01:48:46;23.60;;;12.63;;
15946;SDS011;8072;52.554;7.966;2022-11-15T01:51:13;23.10;;;12.80;;
15946;SDS011;8072;52.554;7.966;2022-11-15T01:53:41;19.00;;;11.17;;
15946;SDS011;8072;52.554;7.966;2022-11-15T01:56:14;24.13;;;12.67;;
15946;SDS011;8072;52.554;7.966;2022-11-15T01:58:44;21.47;;;11.87;;
15946;SDS011;8072;52.554;7.966;2022-11-15T02:01:11;22.93;;;12.17;;
15946;SDS011;8072;52.554;7.966;2022-11-15T02:03:41;21.90;;;12.33;;
15946;SDS011;8072;52.554;7.966;2022-11-15T02:06:24;25.50;;;12.43;;
15946;SDS011;8072;52.554;7.966;2022-11-15T02:08:50;23.10;;;11.33;;
15946;SDS011;8072;52.554;7.966;2022-11-15T02:11:16;21.10;;;11.70;;
15946;SDS011;8072;52.554;7.966;2022-11-15T02:13:42;24.53;;;12.10;;
15946;SDS011;8072;52.554;7.966;2022-11-15T02:16:14;23.57;;;11.77;;
15946;SDS011;8072;52.554;7.966;2022-11-15T02:18:55;23.30;;;12.33;;
15946;SDS011;8072;52.554;7.966;2022-11-15T02:32:58;25.00;;;12.43;;
15946;SDS011;8072;52.554;7.966;2022-11-15T02:38:18;22.10;;;12.83;;
15946;SDS011;8072;52.554;7.966;2022-11-15T02:43:28;22.67;;;12.40;;
15946;SDS011;8072;52.554;7.966;2022-11-15T02:49:16;24.00;;;12.03;;
15946;SDS011;8072;52.554;7.966;2022-11-15T02:51:42;19.90;;;11.33;;
15946;SDS011;8072;52.554;7.966;2022-11-15T02:54:11;19.77;;;11.83;;
15946;SDS011;8072;52.554;7.966;2022-11-15T02:56:40;22.73;;;11.97;;
15946;SDS011;8072;52.554;7.966;2022-11-15T03:07:30;21.47;;;11.17;;
15946;SDS011;8072;52.554;7.966;2022-11-15T03:12:36;17.60;;;11.33;;
15946;SDS011;8072;52.554;7.966;2022-11-15T03:17:53;18.17;;;10.67;;
15946;SDS011;8072;52.554;7.966;2022-11-15T03:20:25;21.77;;;11.30;;
15946;SDS011;8072;52.554;7.966;2022-11-15T03:22:53;17.97;;;10.77;;
15946;SDS011;8072;52.554;7.966;2022-11-15T03:25:24;16.33;;;10.97;;
15946;SDS011;8072;52.554;7.966;2022-11-15T03:27:53;17.67;;;11.43;;
15946;SDS011;8072;52.554;7.966;2022-11-15T03:30:22;20.10;;;11.47;;
15946;SDS011;8072;52.554;7.966;2022-11-15T03:32:58;16.50;;;10.37;;
15946;SDS011;8072;52.554;7.966;2022-11-15T03:35:26;19.13;;;11.00;;
15946;SDS011;8072;52.554;7.966;2022-11-15T03:40:40;17.90;;;10.70;;
15946;SDS011;8072;52.554;7.966;2022-11-15T03:43:35;16.30;;;9.60;;
15946;SDS011;8072;52.554;7.966;2022-11-15T03:48:55;14.40;;;9.40;;
15946;SDS011;8072;52.554;7.966;2022-11-15T03:51:28;16.50;;;9.63;;
15946;SDS011;8072;52.554;7.966;2022-11-15T03:53:55;14.17;;;9.63;;
15946;SDS011;8072;52.554;7.966;2022-11-15T03:56:20;17.37;;;9.83;;
15946;SDS011;8072;52.554;7.966;2022-11-15T03:58:46;15.17;;;9.50;;
15946;SDS011;8072;52.554;7.966;2022-11-15T04:01:12;15.20;;;9.27;;
15946;SDS011;8072;52.554;7.966;2022-11-15T04:03:38;15.30;;;9.20;;
15946;SDS011;8072;52.554;7.966;2022-11-15T04:06:04;15.77;;;9.70;;
15946;SDS011;8072;52.554;7.966;2022-11-15T04:08:29;15.27;;;8.80;;
15946;SDS011;8072;52.554;7.966;2022-11-15T04:10:55;14.50;;;9.53;;
15946;SDS011;8072;52.554;7.966;2022-11-15T04:13:21;19.73;;;9.40;;
15946;SDS011;8072;52.554;7.966;2022-11-15T04:15:47;16.87;;;9.33;;
15946;SDS011;8072;52.554;7.966;2022-11-15T04:18:13;12.80;;;9.00;;
15946;SDS011;8072;52.554;7.966;2022-11-15T04:20:38;16.53;;;9.27;;
15946;SDS011;8072;52.554;7.966;2022-11-15T04:23:23;14.43;;;9.70;;
15946;SDS011;8072;52.554;7.966;2022-11-15T04:26:11;13.30;;;8.97;;
15946;SDS011;8072;52.554;7.966;2022-11-15T04:28:41;14.87;;;9.73;;
15946;SDS011;8072;52.554;7.966;2022-11-15T04:31:25;16.53;;;9.30;;
15946;SDS011;8072;52.554;7.966;2022-11-15T04:33:51;12.43;;;9.00;;
15946;SDS011;8072;52.554;7.966;2022-11-15T04:36:19;15.27;;;8.90;;
15946;SDS011;8072;52.554;7.966;2022-11-15T04:39:04;16.83;;;9.23;;
15946;SDS011;8072;52.554;7.966;2022-11-15T04:41:30;15.60;;;8.70;;
15946;SDS011;8072;52.554;7.966;2022-11-15T04:43:55;16.63;;;9.63;;
15946;SDS011;8072;52.554;7.966;2022-11-15T04:46:22;14.00;;;8.97;;
15946;SDS011;8072;52.554;7.966;2022-11-15T04:48:48;13.10;;;9.00;;
15946;SDS011;8072;52.554;7.966;2022-11-15T04:51:15;14.50;;;9.20;;
15946;SDS011;8072;52.554;7.966;2022-11-15T04:53:41;12.67;;;8.37;;
15946;SDS011;8072;52.554;7.966;2022-11-15T04:56:07;16.00;;;9.13;;
15946;SDS011;8072;52.554;7.966;2022-11-15T04:58:33;14.40;;;9.40;;
15946;SDS011;8072;52.554;7.966;2022-11-15T05:01:06;14.37;;;9.03;;
15946;SDS011;8072;52.554;7.966;2022-11-15T05:03:33;16.33;;;8.47;;
15946;SDS011;8072;52.554;7.966;2022-11-15T05:06:17;15.17;;;9.07;;
15946;SDS011;8072;52.554;7.966;2022-11-15T05:08:43;14.93;;;9.17;;
15946;SDS011;8072;52.554;7.966;2022-11-15T05:11:09;15.77;;;9.20;;
15946;SDS011;8072;52.554;7.966;2022-11-15T05:13:35;12.83;;;9.33;;
15946;SDS011;8072;52.554;7.966;2022-11-15T05:16:02;15.07;;;9.13;;
15946;SDS011;8072;52.554;7.966;2022-11-15T05:18:28;16.37;;;9.10;;
15946;SDS011;8072;52.554;7.966;2022-11-15T05:20:54;15.37;;;9.10;;
15946;SDS011;8072;52.554;7.966;2022-11-15T05:23:19;13.93;;;8.40;;
15946;SDS011;8072;52.554;7.966;2022-11-15T05:25:45;14.60;;;9.10;;
15946;SDS011;8072;52.554;7.966;2022-11-15T05:28:11;15.67;;;8.53;;
15946;SDS011;8072;52.554;7.966;2022-11-15T05:30:37;14.77;;;8.77;;
15946;SDS011;8072;52.554;7.966;2022-11-15T05:33:03;17.43;;;9.40;;
15946;SDS011;8072;52.554;7.966;2022-11-15T05:35:30;14.40;;;9.87;;
15946;SDS011;8072;52.554;7.966;2022-11-15T05:38:02;15.37;;;9.10;;
15946;SDS011;8072;52.554;7.966;2022-11-15T05:40:28;15.73;;;8.90;;
15946;SDS011;8072;52.554;7.966;2022-11-15T05:42:55;15.03;;;9.27;;
15946;SDS011;8072;52.554;7.966;2022-11-15T05:45:22;18.73;;;9.03;;
15946;SDS011;8072;52.554;7.966;2022-11-15T05:47:48;16.23;;;9.47;;
15946;SDS011;8072;52.554;7.966;2022-11-15T05:50:15;15.50;;;9.00;;
15946;SDS011;8072;52.554;7.966;2022-11-15T05:52:43;14.23;;;8.90;;
15946;SDS011;8072;52.554;7.966;2022-11-15T05:55:11;14.07;;;9.20;;
15946;SDS011;8072;52.554;7.966;2022-11-15T05:57:37;16.20;;;8.67;;
15946;SDS011;8072;52.554;7.966;2022-11-15T06:00:03;13.40;;;8.63;;
15946;SDS011;8072;52.554;7.966;2022-11-15T06:02:30;16.67;;;9.37;;
15946;SDS011;8072;52.554;7.966;2022-11-15T06:04:56;14.57;;;9.53;;
15946;SDS011;8072;52.554;7.966;2022-11-15T06:07:21;14.67;;;8.43;;
15946;SDS011;8072;52.554;7.966;2022-11-15T06:09:47;13.37;;;9.27;;
15946;SDS011;8072;52.554;7.966;2022-11-15T06:12:16;15.57;;;9.20;;
15946;SDS011;8072;52.554;7.966;2022-11-15T06:14:41;13.67;;;8.90;;
15946;SDS011;8072;52.554;7.966;2022-11-15T06:17:07;12.37;;;8.20;;
15946;SDS011;8072;52.554;7.966;2022-11-15T06:19:33;16.67;;;9.13;;
15946;SDS011;8072;52.554;7.966;2022-11-15T06:21:59;12.80;;;7.90;;
15946;SDS011;8072;52.554;7.966;2022-11-15T06:24:25;11.73;;;8.07;;
15946;SDS011;8072;52.554;7.966;2022-11-15T06:26:51;16.53;;;9.50;;
15946;SDS011;8072;52.554;7.966;2022-11-15T06:29:16;14.13;;;8.57;;
15946;SDS011;8072;52.554;7.966;2022-11-15T06:31:42;14.40;;;8.77;;
15946;SDS011;8072;52.554;7.966;2022-11-15T06:34:08;14.70;;;9.03;;
15946;SDS011;8072;52.554;7.966;2022-11-15T06:36:34;14.47;;;9.13;;
15946;SDS011;8072;52.554;7.966;2022-11-15T06:39:01;12.03;;;8.53;;
15946;SDS011;8072;52.554;7.966;2022-11-15T06:41:33;13.97;;;9.47;;
15946;SDS011;8072;52.554;7.966;2022-11-15T06:43:59;14.47;;;8.73;;
15946;SDS011;8072;52.554;7.966;2022-11-15T06:46:25;14.27;;;9.07;;
15946;SDS011;8072;52.554;7.966;2022-11-15T06:48:51;16.10;;;9.77;;
15946;SDS011;8072;52.554;7.966;2022-11-15T06:51:17;13.47;;;9.27;;
15946;SDS011;8072;52.554;7.966;2022-11-15T06:53:43;13.13;;;8.77;;
15946;SDS011;8072;52.554;7.966;2022-11-15T06:56:09;13.97;;;8.33;;
15946;SDS011;8072;52.554;7.966;2022-11-15T06:58:35;13.33;;;8.30;;
15946;SDS011;8072;52.554;7.966;2022-11-15T07:01:03;12.23;;;8.30;;
15946;SDS011;8072;52.554;7.966;2022-11-15T07:03:30;11.87;;;7.63;;
15946;SDS011;8072;52.554;7.966;2022-11-15T07:05:57;11.73;;;7.90;;
15946;SDS011;8072;52.554;7.966;2022-11-15T07:08:23;11.03;;;8.20;;
15946;SDS011;8072;52.554;7.966;2022-11-15T07:10:51;11.77;;;8.27;;
15946;SDS011;8072;52.554;7.966;2022-11-15T07:13:17;14.10;;;8.57;;
15946;SDS011;8072;52.554;7.966;2022-11-15T07:15:43;11.47;;;8.13;;
15946;SDS011;8072;52.554;7.966;2022-11-15T07:18:08;12.67;;;8.17;;
15946;SDS011;8072;52.554;7.966;2022-11-15T07:20:34;11.37;;;7.87;;
15946;SDS011;8072;52.554;7.966;2022-11-15T07:23:04;15.80;;;8.70;;
15946;SDS011;8072;52.554;7.966;2022-11-15T07:25:30;13.23;;;9.10;;
15946;SDS011;8072;52.554;7.966;2022-11-15T07:27:57;12.27;;;8.70;;
15946;SDS011;8072;52.554;7.966;2022-11-15T07:30:24;13.73;;;8.67;;
15946;SDS011;8072;52.554;7.966;2022-11-15T07:32:57;17.07;;;9.33;;
15946;SDS011;8072;52.554;7.966;2022-11-15T07:35:24;15.20;;;9.53;;
15946;SDS011;8072;52.554;7.966;2022-11-15T07:37:55;15.47;;;8.87;;
15946;SDS011;8072;52.554;7.966;2022-11-15T07:40:26;13.47;;;9.13;;
15946;SDS011;8072;52.554;7.966;2022-11-15T07:42:58;14.43;;;8.63;;
15946;SDS011;8072;52.554;7.966;2022-11-15T07:45:25;19.63;;;9.40;;
15946;SDS011;8072;52.554;7.966;2022-11-15T07:47:51;13.43;;;9.27;;
15946;SDS011;8072;52.554;7.966;2022-11-15T07:50:17;13.80;;;9.03;;
15946;SDS011;8072;52.554;7.966;2022-11-15T07:52:44;19.80;;;10.20;;
15946;SDS011;8072;52.554;7.966;2022-11-15T07:55:10;14.10;;;9.77;;
15946;SDS011;8072;52.554;7.966;2022-11-15T07:57:36;15.93;;;9.60;;
15946;SDS011;8072;52.554;7.966;2022-11-15T08:00:03;13.50;;;9.20;;
15946;SDS011;8072;52.554;7.966;2022-11-15T08:02:30;18.13;;;10.20;;
15946;SDS011;8072;52.554;7.966;2022-11-15T08:04:56;14.03;;;9.10;;
15946;SDS011;8072;52.554;7.966;2022-11-15T08:07:22;10.90;;;8.03;;
15946;SDS011;8072;52.554;7.966;2022-11-15T08:09:48;13.37;;;9.20;;
15946;SDS011;8072;52.554;7.966;2022-11-15T08:12:14;14.17;;;9.03;;
15946;SDS011;8072;52.554;7.966;2022-11-15T08:14:40;13.53;;;8.57;;
15946;SDS011;8072;52.554;7.966;2022-11-15T08:17:05;14.57;;;9.30;;
15946;SDS011;8072;52.554;7.966;2022-11-15T08:19:31;15.07;;;9.03;;
15946;SDS011;8072;52.554;7.966;2022-11-15T08:21:57;16.27;;;9.13;;
15946;SDS011;8072;52.554;7.966;2022-11-15T08:24:23;12.40;;;8.73;;
15946;SDS011;8072;52.554;7.966;2022-11-15T08:26:49;13.73;;;8.47;;
15946;SDS011;8072;52.554;7.966;2022-11-15T08:29:14;12.27;;;8.03;;
15946;SDS011;8072;52.554;7.966;2022-11-15T08:31:40;13.47;;;9.20;;
15946;SDS011;8072;52.554;7.966;2022-11-15T08:34:07;16.30;;;9.20;;
15946;SDS011;8072;52.554;7.966;2022-11-15T08:36:33;14.63;;;8.47;;
15946;SDS011;8072;52.554;7.966;2022-11-15T08:38:59;12.47;;;9.33;;
15946;SDS011;8072;52.554;7.966;2022-11-15T08:41:26;13.67;;;9.03;;
15946;SDS011;8072;52.554;7.966;2022-11-15T08:43:55;14.90;;;8.77;;
15946;SDS011;8072;52.554;7.966;2022-11-15T08:46:21;11.80;;;8.83;;
15946;SDS011;8072;52.554;7.966;2022-11-15T08:48:47;17.10;;;9.00;;
15946;SDS011;8072;52.554;7.966;2022-11-15T08:51:13;13.13;;;8.77;;
15946;SDS011;8072;52.554;7.966;2022-11-15T08:53:39;11.60;;;8.60;;
15946;SDS011;8072;52.554;7.966;2022-11-15T08:56:09;10.97;;;7.87;;
15946;SDS011;8072;52.554;7.966;2022-11-15T08:58:36;15.87;;;8.80;;
15946;SDS011;8072;52.554;7.966;2022-11-15T09:01:02;13.17;;;8.40;;
15946;SDS011;8072;52.554;7.966;2022-11-15T09:03:29;16.53;;;8.83;;
15946;SDS011;8072;52.554;7.966;2022-11-15T09:06:14;12.97;;;8.27;;
15946;SDS011;8072;52.554;7.966;2022-11-15T09:09:00;12.90;;;8.13;;
15946;SDS011;8072;52.554;7.966;2022-11-15T09:11:27;12.97;;;7.90;;
15946;SDS011;8072;52.554;7.966;2022-11-15T09:13:53;12.17;;;7.73;;
15946;SDS011;8072;52.554;7.966;2022-11-15T09:16:19;12.47;;;7.77;;
15946;SDS011;8072;52.554;7.966;2022-11-15T09:18:45;11.73;;;7.33;;
15946;SDS011;8072;52.554;7.966;2022-11-15T09:21:12;13.77;;;7.43;;
15946;SDS011;8072;52.554;7.966;2022-11-15T09:23:38;11.80;;;7.63;;
15946;SDS011;8072;52.554;7.966;2022-11-15T09:26:04;10.93;;;7.40;;
15946;SDS011;8072;52.554;7.966;2022-11-15T09:28:31;12.93;;;7.37;;
15946;SDS011;8072;52.554;7.966;2022-11-15T09:31:02;10.37;;;7.10;;
15946;SDS011;8072;52.554;7.966;2022-11-15T09:33:29;8.80;;;6.77;;
15946;SDS011;8072;52.554;7.966;2022-11-15T09:36:29;12.87;;;6.43;;
15946;SDS011;8072;52.554;7.966;2022-11-15T09:38:48;11.00;;;6.47;;
15946;SDS011;8072;52.554;7.966;2022-11-15T09:49:08;6.50;;;5.33;;
15946;SDS011;8072;52.554;7.966;2022-11-15T09:51:36;8.97;;;6.00;;
15946;SDS011;8072;52.554;7.966;2022-11-15T09:56:46;6.93;;;5.33;;
15946;SDS011;8072;52.554;7.966;2022-11-15T10:05:25;7.43;;;5.37;;
15946;SDS011;8072;52.554;7.966;2022-11-15T10:10:39;9.33;;;5.30;;
15946;SDS011;8072;52.554;7.966;2022-11-15T10:13:41;9.33;;;5.43;;
15946;SDS011;8072;52.554;7.966;2022-11-15T10:24:34;5.27;;;4.03;;
15946;SDS011;8072;52.554;7.966;2022-11-15T10:27:04;5.70;;;3.83;;
15946;SDS011;8072;52.554;7.966;2022-11-15T10:29:42;5.47;;;4.17;;
15946;SDS011;8072;52.554;7.966;2022-11-15T10:32:14;4.33;;;3.60;;
15946;SDS011;8072;52.554;7.966;2022-11-15T10:34:42;5.60;;;3.77;;
15946;SDS011;8072;52.554;7.966;2022-11-15T10:37:08;4.80;;;3.60;;
15946;SDS011;8072;52.554;7.966;2022-11-15T10:39:34;7.60;;;3.30;;
15946;SDS011;8072;52.554;7.966;2022-11-15T10:44:44;4.70;;;3.40;;
15946;SDS011;8072;52.554;7.966;2022-11-15T10:47:43;6.43;;;3.67;;
15946;SDS011;8072;52.554;7.966;2022-11-15T10:50:06;5.43;;;3.30;;
15946;SDS011;8072;52.554;7.966;2022-11-15T10:52:51;4.80;;;3.10;;
15946;SDS011;8072;52.554;7.966;2022-11-15T10:55:20;4.63;;;3.43;;
15946;SDS011;8072;52.554;7.966;2022-11-15T10:57:56;4.00;;;3.50;;
15946;SDS011;8072;52.554;7.966;2022-11-15T11:00:36;3.87;;;3.27;;
15946;SDS011;8072;52.554;7.966;2022-11-15T11:03:22;5.27;;;3.30;;
15946;SDS011;8072;52.554;7.966;2022-11-15T11:06:02;5.63;;;3.53;;
15946;SDS011;8072;52.554;7.966;2022-11-15T11:08:33;5.40;;;3.40;;
15946;SDS011;8072;52.554;7.966;2022-11-15T11:11:00;3.30;;;2.90;;
15946;SDS011;8072;52.554;7.966;2022-11-15T11:13:30;5.57;;;2.77;;
15946;SDS011;8072;52.554;7.966;2022-11-15T11:47:21;3.90;;;2.50;;
15946;SDS011;8072;52.554;7.966;2022-11-15T11:49:51;4.73;;;3.07;;
15946;SDS011;8072;52.554;7.966;2022-11-15T11:52:24;2.93;;;2.63;;
15946;SDS011;8072;52.554;7.966;2022-11-15T12:02:33;3.57;;;2.37;;
15946;SDS011;8072;52.554;7.966;2022-11-15T12:05:07;4.90;;;2.27;;
15946;SDS011;8072;52.554;7.966;2022-11-15T12:07:42;3.40;;;2.20;;
15946;SDS011;8072;52.554;7.966;2022-11-15T12:13:02;4.17;;;2.40;;
15946;SDS011;8072;52.554;7.966;2022-11-15T12:15:36;5.00;;;2.73;;
15946;SDS011;8072;52.554;7.966;2022-11-15T12:18:07;3.27;;;2.23;;
15946;SDS011;8072;52.554;7.966;2022-11-15T12:20:39;2.90;;;2.60;;
15946;SDS011;8072;52.554;7.966;2022-11-15T12:23:25;2.30;;;2.10;;
15946;SDS011;8072;52.554;7.966;2022-11-15T12:26:01;3.90;;;2.63;;
15946;SDS011;8072;52.554;7.966;2022-11-15T12:28:51;3.00;;;2.10;;
15946;SDS011;8072;52.554;7.966;2022-11-15T12:34:04;2.30;;;1.40;;
15946;SDS011;8072;52.554;7.966;2022-11-15T12:36:43;2.50;;;1.80;;
15946;SDS011;8072;52.554;7.966;2022-11-15T12:39:12;1.63;;;1.30;;
15946;SDS011;8072;52.554;7.966;2022-11-15T13:02:46;2.33;;;1.50;;
15946;SDS011;8072;52.554;7.966;2022-11-15T13:12:57;2.63;;;1.23;;
15946;SDS011;8072;52.554;7.966;2022-11-15T13:15:35;1.67;;;1.00;;
15946;SDS011;8072;52.554;7.966;2022-11-15T13:20:57;2.07;;;1.03;;
15946;SDS011;8072;52.554;7.966;2022-11-15T13:23:24;2.30;;;1.27;;
15946;SDS011;8072;52.554;7.966;2022-11-15T13:28:32;3.53;;;1.10;;
15946;SDS011;8072;52.554;7.966;2022-11-15T13:33:48;1.57;;;1.10;;
15946;SDS011;8072;52.554;7.966;2022-11-15T13:36:15;2.83;;;0.90;;
15946;SDS011;8072;52.554;7.966;2022-11-15T13:38:53;2.53;;;0.90;;
15946;SDS011;8072;52.554;7.966;2022-11-15T13:41:25;1.10;;;0.80;;
15946;SDS011;8072;52.554;7.966;2022-11-15T13:43:53;1.50;;;1.00;;
15946;SDS011;8072;52.554;7.966;2022-11-15T13:48:47;0.80;;;0.80;;
15946;SDS011;8072;52.554;7.966;2022-11-15T13:51:39;1.63;;;0.90;;
15946;SDS011;8072;52.554;7.966;2022-11-15T13:56:37;2.53;;;0.90;;
15946;SDS011;8072;52.554;7.966;2022-11-15T13:59:24;3.70;;;1.10;;
15946;SDS011;8072;52.554;7.966;2022-11-15T14:01:54;2.63;;;1.00;;
15946;SDS011;8072;52.554;7.966;2022-11-15T14:04:23;2.57;;;0.90;;
15946;SDS011;8072;52.554;7.966;2022-11-15T14:06:52;1.60;;;1.00;;
15946;SDS011;8072;52.554;7.966;2022-11-15T14:09:25;1.20;;;1.00;;
15946;SDS011;8072;52.554;7.966;2022-11-15T14:14:56;1.43;;;1.33;;
15946;SDS011;8072;52.554;7.966;2022-11-15T14:19:55;1.27;;;1.00;;
15946;SDS011;8072;52.554;7.966;2022-11-15T14:22:22;1.90;;;1.00;;
15946;SDS011;8072;52.554;7.966;2022-11-15T14:30:39;1.70;;;1.30;;
15946;SDS011;8072;52.554;7.966;2022-11-15T14:35:56;1.60;;;0.90;;
15946;SDS011;8072;52.554;7.966;2022-11-15T14:38:36;1.57;;;0.80;;
15946;SDS011;8072;52.554;7.966;2022-11-15T14:41:02;2.50;;;1.20;;
15946;SDS011;8072;52.554;7.966;2022-11-15T14:43:28;6.37;;;1.10;;
15946;SDS011;8072;52.554;7.966;2022-11-15T14:45:54;1.90;;;1.20;;
15946;SDS011;8072;52.554;7.966;2022-11-15T14:48:20;1.73;;;1.17;;
15946;SDS011;8072;52.554;7.966;2022-11-15T14:50:47;2.27;;;1.57;;
15946;SDS011;8072;52.554;7.966;2022-11-15T14:53:16;2.67;;;1.80;;
15946;SDS011;8072;52.554;7.966;2022-11-15T14:55:43;3.90;;;2.10;;
15946;SDS011;8072;52.554;7.966;2022-11-15T14:58:09;4.20;;;2.80;;
15946;SDS011;8072;52.554;7.966;2022-11-15T15:00:39;3.20;;;1.57;;
15946;SDS011;8072;52.554;7.966;2022-11-15T15:03:06;2.03;;;1.50;;
15946;SDS011;8072;52.554;7.966;2022-11-15T15:05:33;2.17;;;1.40;;
15946;SDS011;8072;52.554;7.966;2022-11-15T15:08:04;4.00;;;1.70;;
15946;SDS011;8072;52.554;7.966;2022-11-15T15:10:32;2.70;;;1.30;;
15946;SDS011;8072;52.554;7.966;2022-11-15T15:13:02;4.10;;;1.73;;
15946;SDS011;8072;52.554;7.966;2022-11-15T15:15:36;5.30;;;1.73;;
15946;SDS011;8072;52.554;7.966;2022-11-15T15:18:03;2.77;;;1.53;;
15946;SDS011;8072;52.554;7.966;2022-11-15T15:20:31;3.70;;;1.60;;
15946;SDS011;8072;52.554;7.966;2022-11-15T15:22:57;5.20;;;1.80;;
15946;SDS011;8072;52.554;7.966;2022-11-15T15:27:59;3.60;;;1.63;;
15946;SDS011;8072;52.554;7.966;2022-11-15T15:30:27;1.97;;;1.47;;
15946;SDS011;8072;52.554;7.966;2022-11-15T15:32:54;4.40;;;1.60;;
15946;SDS011;8072;52.554;7.966;2022-11-15T15:35:20;4.43;;;2.10;;
15946;SDS011;8072;52.554;7.966;2022-11-15T15:37:47;2.43;;;1.67;;
15946;SDS011;8072;52.554;7.966;2022-11-15T15:40:32;2.87;;;2.10;;
15946;SDS011;8072;52.554;7.966;2022-11-15T15:42:58;5.00;;;2.20;;
15946;SDS011;8072;52.554;7.966;2022-11-15T15:45:24;3.07;;;2.27;;
15946;SDS011;8072;52.554;7.966;2022-11-15T15:47:52;3.90;;;2.20;;
15946;SDS011;8072;52.554;7.966;2022-11-15T15:52:50;3.90;;;2.37;;
15946;SDS011;8072;52.554;7.966;2022-11-15T15:55:17;5.03;;;2.67;;
15946;SDS011;8072;52.554;7.966;2022-11-15T15:57:43;4.47;;;3.07;;
15946;SDS011;8072;52.554;7.966;2022-11-15T16:00:09;7.63;;;3.90;;
15946;SDS011;8072;52.554;7.966;2022-11-15T16:02:36;6.47;;;3.93;;
15946;SDS011;8072;52.554;7.966;2022-11-15T16:05:02;4.70;;;3.43;;
15946;SDS011;8072;52.554;7.966;2022-11-15T16:07:28;5.20;;;3.23;;
15946;SDS011;8072;52.554;7.966;2022-11-15T16:09:54;4.90;;;3.47;;
15946;SDS011;8072;52.554;7.966;2022-11-15T16:12:32;4.87;;;3.27;;
15946;SDS011;8072;52.554;7.966;2022-11-15T16:14:59;9.83;;;5.37;;
15946;SDS011;8072;52.554;7.966;2022-11-15T16:17:28;7.17;;;4.97;;
15946;SDS011;8072;52.554;7.966;2022-11-15T16:19:57;6.27;;;4.30;;
15946;SDS011;8072;52.554;7.966;2022-11-15T16:22:23;6.13;;;4.30;;
15946;SDS011;8072;52.554;7.966;2022-11-15T16:24:49;5.43;;;3.97;;
15946;SDS011;8072;52.554;7.966;2022-11-15T16:27:16;9.90;;;5.43;;
15946;SDS011;8072;52.554;7.966;2022-11-15T16:29:43;9.13;;;4.70;;
15946;SDS011;8072;52.554;7.966;2022-11-15T16:32:10;8.87;;;5.00;;
15946;SDS011;8072;52.554;7.966;2022-11-15T16:34:36;7.40;;;4.70;;
15946;SDS011;8072;52.554;7.966;2022-11-15T16:37:02;9.07;;;4.50;;
15946;SDS011;8072;52.554;7.966;2022-11-15T16:39:28;5.10;;;3.40;;
15946;SDS011;8072;52.554;7.966;2022-11-15T16:41:58;3.87;;;3.03;;
15946;SDS011;8072;52.554;7.966;2022-11-15T16:44:24;3.90;;;3.33;;
15946;SDS011;8072;52.554;7.966;2022-11-15T16:46:51;5.20;;;3.27;;
15946;SDS011;8072;52.554;7.966;2022-11-15T16:49:18;3.97;;;2.93;;
15946;SDS011;8072;52.554;7.966;2022-11-15T16:51:45;4.10;;;3.17;;
15946;SDS011;8072;52.554;7.966;2022-11-15T16:54:12;3.27;;;2.83;;
15946;SDS011;8072;52.554;7.966;2022-11-15T16:56:38;4.80;;;3.50;;
15946;SDS011;8072;52.554;7.966;2022-11-15T16:59:05;5.13;;;2.90;;
15946;SDS011;8072;52.554;7.966;2022-11-15T17:01:36;5.37;;;3.13;;
15946;SDS011;8072;52.554;7.966;2022-11-15T17:04:17;3.73;;;2.73;;
15946;SDS011;8072;52.554;7.966;2022-11-15T17:06:44;6.07;;;2.93;;
15946;SDS011;8072;52.554;7.966;2022-11-15T17:09:19;3.53;;;3.03;;
15946;SDS011;8072;52.554;7.966;2022-11-15T17:11:50;5.47;;;4.07;;
15946;SDS011;8072;52.554;7.966;2022-11-15T17:14:17;5.50;;;3.70;;
15946;SDS011;8072;52.554;7.966;2022-11-15T17:16:43;4.80;;;3.57;;
15946;SDS011;8072;52.554;7.966;2022-11-15T17:19:17;6.43;;;4.40;;
15946;SDS011;8072;52.554;7.966;2022-11-15T17:21:44;6.60;;;4.43;;
15946;SDS011;8072;52.554;7.966;2022-11-15T17:24:11;6.47;;;5.50;;
15946;SDS011;8072;52.554;7.966;2022-11-15T17:26:37;7.50;;;5.00;;
15946;SDS011;8072;52.554;7.966;2022-11-15T17:29:05;5.40;;;4.77;;
15946;SDS011;8072;52.554;7.966;2022-11-15T17:31:35;6.37;;;4.23;;
15946;SDS011;8072;52.554;7.966;2022-11-15T17:34:01;5.63;;;4.23;;
15946;SDS011;8072;52.554;7.966;2022-11-15T17:36:28;5.43;;;4.30;;
15946;SDS011;8072;52.554;7.966;2022-11-15T17:38:54;4.63;;;3.90;;
15946;SDS011;8072;52.554;7.966;2022-11-15T17:41:21;5.20;;;4.10;;
15946;SDS011;8072;52.554;7.966;2022-11-15T17:43:48;8.73;;;5.43;;
15946;SDS011;8072;52.554;7.966;2022-11-15T17:46:15;6.20;;;5.07;;
15946;SDS011;8072;52.554;7.966;2022-11-15T17:48:43;8.50;;;5.33;;
15946;SDS011;8072;52.554;7.966;2022-11-15T17:51:11;6.37;;;4.50;;
15946;SDS011;8072;52.554;7.966;2022-11-15T17:53:40;6.23;;;5.30;;
15946;SDS011;8072;52.554;7.966;2022-11-15T17:58:38;5.00;;;4.03;;
15946;SDS011;8072;52.554;7.966;2022-11-15T18:01:16;5.77;;;4.60;;